Terminal Aerodrome Forecast
Issued by NWS St Louis, MO

Home | Current Version | Previous Version | Text Only | Print | Product List | Glossary On
Versions: 1 2 3 4 5 6 7 8 9 10 11 12 13 14 15 16 17 18 19 20
945
FTUS43 KLSX 220248 AAA
TAFCOU
TAF AMD
KCOU 220248Z 2203/2224 16012G20KT P6SM VCTS SCT030CB BKN060
      TEMPO 2203/2205 6SM -SHRA BKN030
     FM220500 17013G19KT 6SM -SHRA VCTS OVC050CB
      TEMPO 2205/2207 VRB20G35KT 2SM +TSRA OVC020CB
     FM220800 27012KT 6SM SHRA VCTS OVC030CB
     FM221000 31012KT P6SM -SHRA OVC015
     FM221500 32012KT P6SM BKN025
     FM221800 32012KT P6SM BKN035=

USA.gov is the U.S. government's official web portal to all federal, state and local government web resources and services.